createdAt,value
2019-04-06T00:01:45.175Z,49.67
2019-04-06T00:04:21.347Z,52.62
2019-04-06T00:06:54.167Z,60.10
2019-04-06T00:09:26.925Z,57.70
2019-04-06T00:11:59.702Z,58.05
2019-04-06T00:14:33.092Z,51.75
2019-04-06T00:17:05.972Z,49.83
2019-04-06T00:19:39.891Z,53.25
2019-04-06T00:22:12.813Z,55.92
2019-04-06T00:24:45.715Z,51.18
2019-04-06T00:27:21.735Z,51.30
2019-04-06T00:29:56.653Z,60.88
2019-04-06T00:32:36.570Z,50.33
2019-04-06T00:35:10.762Z,64.00
2019-04-06T00:37:43.641Z,53.20
2019-04-06T00:40:17.522Z,58.70
2019-04-06T00:42:50.466Z,51.48
2019-04-06T00:45:23.390Z,46.73
2019-04-06T00:47:56.184Z,48.75
2019-04-06T00:50:29.044Z,44.88
2019-04-06T00:53:02.839Z,51.40
2019-04-06T00:55:35.831Z,46.55
2019-04-06T00:58:15.699Z,50.17
2019-04-06T01:00:48.540Z,47.43
2019-04-06T01:03:21.332Z,58.80
2019-04-06T01:05:56.389Z,48.15
2019-04-06T01:08:29.234Z,46.23
2019-04-06T01:11:03.199Z,52.10
2019-04-06T01:13:38.216Z,39.15
2019-04-06T01:16:11.286Z,54.13
2019-04-06T01:18:44.249Z,43.50
2019-04-06T01:21:17.152Z,46.92
2019-04-06T01:23:50.095Z,44.80
2019-04-06T01:26:23.025Z,47.67
2019-04-06T01:28:55.821Z,40.92
2019-04-06T01:31:30.688Z,51.45
2019-04-06T01:34:03.529Z,45.23
2019-04-06T01:36:38.356Z,46.85
2019-04-06T01:39:13.442Z,45.28
2019-04-06T01:41:46.350Z,47.00
2019-04-06T01:44:19.334Z,46.53
2019-04-06T01:46:52.123Z,42.70
2019-04-06T01:49:31.517Z,35.23
2019-04-06T01:52:05.300Z,46.28
2019-04-06T01:54:38.113Z,42.60
2019-04-06T01:57:12.581Z,45.83
2019-04-06T01:59:46.589Z,45.48
2019-04-06T02:02:30.572Z,44.73
2019-04-06T02:05:06.339Z,45.10
2019-04-06T02:07:39.202Z,49.90
2019-04-06T02:10:14.130Z,40.70
2019-04-06T02:12:49.510Z,40.48
2019-04-06T02:15:24.817Z,43.92
2019-04-06T02:18:02.275Z,49.27
2019-04-06T02:20:36.174Z,46.88
2019-04-06T02:23:08.965Z,46.33
2019-04-06T02:25:41.819Z,42.33
2019-04-06T02:28:15.406Z,42.90
2019-04-06T02:31:00.729Z,43.78
2019-04-06T02:33:52.516Z,42.53
2019-04-06T02:36:42.085Z,46.63
2019-04-06T02:39:31.888Z,46.92
2019-04-06T02:42:12.707Z,47.70
2019-04-06T02:44:45.978Z,41.88
2019-04-06T02:47:18.775Z,41.98
2019-04-06T02:49:51.613Z,44.95
2019-04-06T02:52:25.493Z,45.55
2019-04-06T02:54:58.415Z,47.98
2019-04-06T02:57:31.302Z,43.00
2019-04-06T03:00:04.343Z,43.40
2019-04-06T03:02:39.334Z,40.15
2019-04-06T03:05:13.416Z,47.10
2019-04-06T03:07:46.514Z,45.00
2019-04-06T03:10:20.841Z,52.58
2019-04-06T03:12:53.679Z,45.75
2019-04-06T03:15:26.625Z,51.33
2019-04-06T03:17:59.699Z,54.77
2019-04-06T03:20:32.611Z,48.38
2019-04-06T03:23:07.139Z,52.38
2019-04-06T03:25:41.086Z,51.58
2019-04-06T03:28:17.779Z,53.28
2019-04-06T03:30:50.703Z,51.58
2019-04-06T03:33:30.513Z,65.17
2019-04-06T03:36:04.897Z,50.40
2019-04-06T03:38:37.828Z,46.42
2019-04-06T03:41:13.369Z,43.02
2019-04-06T03:43:53.304Z,51.23
2019-04-06T03:46:30.381Z,47.67
2019-04-06T03:49:05.304Z,40.38
2019-04-06T03:51:41.806Z,50.40
2019-04-06T03:54:14.723Z,47.03
2019-04-06T03:56:47.794Z,41.83
2019-04-06T03:59:21.804Z,39.67
2019-04-06T04:01:54.747Z,44.98
2019-04-06T04:04:27.666Z,43.90
2019-04-06T04:07:00.690Z,45.65
2019-04-06T04:09:33.576Z,46.33
2019-04-06T04:12:09.671Z,43.78
2019-04-06T04:14:45.752Z,41.20
2019-04-06T04:17:18.537Z,45.75
2019-04-06T04:19:51.358Z,46.70
2019-04-06T04:22:24.546Z,44.65
2019-04-06T04:24:58.585Z,51.80
2019-04-06T04:27:31.385Z,41.28
2019-04-06T04:30:04.573Z,50.03
2019-04-06T04:32:37.534Z,46.28
2019-04-06T04:35:10.678Z,36.58
2019-04-06T04:37:43.974Z,44.73
2019-04-06T04:40:16.804Z,42.13
2019-04-06T04:42:49.726Z,45.70
2019-04-06T04:45:22.581Z,51.35
2019-04-06T04:47:55.755Z,48.60
2019-04-06T04:50:28.642Z,50.65
2019-04-06T04:53:01.786Z,42.40
2019-04-06T04:55:36.414Z,42.85
2019-04-06T04:58:09.361Z,41.05
2019-04-06T05:00:42.109Z,42.17
2019-04-06T05:03:14.963Z,51.58
2019-04-06T05:05:47.792Z,42.88
2019-04-06T05:08:20.799Z,44.03
2019-04-06T05:10:53.577Z,47.70
2019-04-06T05:13:26.434Z,45.50
2019-04-06T05:16:24.588Z,59.73
2019-04-06T05:18:57.350Z,44.55
2019-04-06T05:21:30.175Z,39.67
2019-04-06T05:24:03.009Z,41.40
2019-04-06T05:26:37.879Z,40.43
2019-04-06T05:29:10.435Z,43.48
2019-04-06T05:31:43.185Z,43.02
2019-04-06T05:34:16.048Z,43.60
2019-04-06T05:36:48.925Z,44.23
2019-04-06T05:39:21.705Z,39.98
2019-04-06T05:41:54.717Z,39.53
2019-04-06T05:44:27.607Z,40.92
2019-04-06T05:47:00.819Z,46.28
2019-04-06T05:49:33.924Z,44.18
2019-04-06T05:52:06.874Z,39.30
2019-04-06T05:54:39.814Z,41.58
2019-04-06T05:57:12.830Z,45.15
2019-04-06T05:59:45.636Z,43.92
2019-04-06T06:02:19.041Z,53.68
2019-04-06T06:04:51.999Z,44.73
2019-04-06T06:07:24.888Z,46.08
2019-04-06T06:09:57.672Z,37.83
2019-04-06T06:12:30.470Z,41.30
2019-04-06T06:15:03.514Z,39.78
2019-04-06T06:17:36.406Z,39.50
2019-04-06T06:20:09.770Z,48.35
2019-04-06T06:22:42.595Z,40.63
2019-04-06T06:25:15.702Z,42.13
2019-04-06T06:27:48.550Z,40.25
2019-04-06T06:30:24.412Z,46.83
2019-04-06T06:32:57.365Z,48.02
2019-04-06T06:35:30.198Z,46.00
2019-04-06T06:38:03.016Z,41.10
2019-04-06T06:40:35.945Z,42.05
2019-04-06T06:43:08.768Z,41.70
2019-04-06T06:45:41.768Z,43.95
2019-04-06T06:48:14.602Z,44.13
2019-04-06T06:50:48.518Z,38.28
2019-04-06T06:53:21.330Z,42.03
2019-04-06T06:55:54.397Z,43.58
2019-04-06T06:58:27.195Z,46.92
2019-04-06T07:00:59.996Z,44.77
2019-04-06T07:03:33.071Z,48.73
2019-04-06T07:06:05.997Z,38.53
2019-04-06T07:08:39.668Z,49.65
2019-04-06T07:11:12.541Z,47.05
2019-04-06T07:13:45.496Z,41.88
2019-04-06T07:16:18.442Z,47.17
2019-04-06T07:18:51.259Z,38.33
2019-04-06T07:21:24.085Z,52.98
2019-04-06T07:23:56.870Z,43.55
2019-04-06T07:26:29.658Z,45.95
2019-04-06T07:29:02.733Z,46.73
2019-04-06T07:31:35.525Z,37.88
2019-04-06T07:34:08.305Z,38.65
2019-04-06T07:36:41.086Z,47.43
2019-04-06T07:39:14.016Z,48.28
2019-04-06T07:41:46.859Z,45.85
2019-04-06T07:44:19.646Z,33.00
2019-04-06T07:46:52.683Z,36.50
2019-04-06T07:49:25.615Z,38.33
2019-04-06T07:51:58.438Z,35.33
2019-04-06T07:54:31.294Z,35.73
2019-04-06T07:57:04.443Z,43.00
2019-04-06T07:59:37.381Z,36.25
2019-04-06T08:02:10.188Z,36.85
2019-04-06T08:04:43.109Z,45.30
2019-04-06T08:07:15.937Z,39.33
2019-04-06T08:09:48.758Z,39.78
2019-04-06T08:12:21.677Z,32.30
2019-04-06T08:14:57.398Z,36.15
2019-04-06T08:17:31.554Z,37.23
2019-04-06T08:20:05.184Z,33.08
2019-04-06T08:22:37.998Z,32.17
2019-04-06T08:25:11.501Z,33.98
2019-04-06T08:27:44.558Z,37.33
2019-04-06T08:30:17.509Z,34.70
2019-04-06T08:32:50.345Z,32.48
2019-04-06T08:35:26.090Z,29.35
2019-04-06T08:37:57.869Z,26.73
2019-04-06T08:40:31.025Z,45.15
2019-04-06T08:43:03.828Z,37.23
2019-04-06T08:45:36.641Z,33.95
2019-04-06T08:48:09.453Z,30.70
2019-04-06T08:50:42.367Z,35.20
2019-04-06T08:53:15.304Z,25.55
2019-04-06T08:55:48.196Z,31.75
2019-04-06T08:58:21.498Z,26.45
2019-04-06T09:00:54.403Z,29.25
2019-04-06T09:03:27.666Z,23.10
2019-04-06T09:06:00.516Z,31.15
2019-04-06T09:08:33.295Z,20.57
2019-04-06T09:11:06.190Z,40.78
2019-04-06T09:13:40.416Z,27.15
2019-04-06T09:16:13.528Z,21.07
2019-04-06T09:18:49.154Z,30.15
2019-04-06T09:21:22.634Z,24.30
2019-04-06T09:23:58.209Z,29.05
2019-04-06T09:26:30.440Z,25.82
2019-04-06T09:29:03.315Z,24.37
2019-04-06T09:31:36.287Z,26.68
2019-04-06T09:34:10.086Z,23.38
2019-04-06T09:36:43.472Z,23.40
2019-04-06T09:39:16.211Z,25.85
2019-04-06T09:41:49.234Z,27.62
2019-04-06T09:44:39.866Z,26.17
2019-04-06T09:47:20.854Z,17.62
2019-04-06T09:50:11.426Z,29.45
2019-04-06T09:53:04.489Z,30.48
2019-04-06T09:55:58.733Z,27.90
2019-04-06T09:58:53.321Z,27.82
2019-04-06T10:01:48.037Z,25.77
2019-04-06T10:04:55.507Z,25.57
2019-04-06T10:08:05.741Z,27.13
2019-04-06T10:10:52.433Z,39.40
2019-04-06T10:13:45.182Z,27.22
2019-04-06T10:16:45.750Z,29.42
2019-04-06T10:19:35.855Z,29.05
2019-04-06T10:22:27.263Z,18.82
2019-04-06T10:25:21.734Z,27.75
2019-04-06T10:28:31.905Z,25.02
2019-04-06T10:31:18.107Z,24.80
2019-04-06T10:34:20.884Z,30.92
2019-04-06T10:37:12.044Z,28.05
2019-04-06T10:39:53.068Z,23.95
2019-04-06T10:42:32.800Z,25.65
2019-04-06T10:45:24.734Z,27.80
2019-04-06T10:48:18.081Z,18.15
2019-04-06T10:51:19.022Z,25.23
2019-04-06T10:54:13.104Z,22.07
2019-04-06T10:57:23.003Z,26.40
2019-04-06T11:00:17.426Z,27.42
2019-04-06T11:02:58.007Z,33.18
2019-04-06T11:05:55.728Z,24.20
2019-04-06T11:08:36.489Z,19.50
2019-04-06T11:11:22.858Z,22.75
2019-04-06T11:14:26.819Z,27.37
2019-04-06T11:17:09.983Z,23.32
2019-04-06T11:20:01.899Z,22.42
2019-04-06T11:23:10.292Z,26.40
2019-04-06T11:26:20.344Z,26.07
2019-04-06T11:29:18.211Z,25.48
2019-04-06T11:32:00.762Z,18.82
2019-04-06T11:34:51.406Z,19.27
2019-04-06T11:37:42.121Z,23.27
2019-04-06T11:40:40.628Z,25.62
2019-04-06T11:43:41.405Z,27.35
2019-04-06T11:46:36.024Z,19.65
2019-04-06T11:49:20.100Z,22.58
2019-04-06T11:52:04.373Z,22.90
2019-04-06T11:54:54.612Z,23.07
2019-04-06T11:57:46.320Z,20.05
2019-04-06T12:00:44.167Z,21.33
2019-04-06T12:03:25.559Z,24.40
2019-04-06T12:06:20.193Z,26.55
2019-04-06T12:09:10.913Z,24.65
2019-04-06T12:12:01.239Z,20.62
2019-04-06T12:14:52.426Z,27.17
2019-04-06T12:17:35.555Z,22.77
2019-04-06T12:20:34.042Z,23.22
2019-04-06T12:23:25.332Z,23.83
2019-04-06T12:26:17.352Z,25.72
2019-04-06T12:29:09.084Z,28.57
2019-04-06T12:31:59.944Z,22.58
2019-04-06T12:34:47.959Z,20.68
2019-04-06T12:37:37.927Z,18.02
2019-04-06T12:40:20.318Z,19.40
2019-04-06T12:43:06.052Z,21.07
2019-04-06T12:45:56.528Z,26.12
2019-04-06T12:49:06.467Z,23.75
2019-04-06T12:51:58.887Z,21.82
2019-04-06T12:54:59.468Z,18.37
2019-04-06T12:57:41.125Z,21.35
2019-04-06T13:00:32.579Z,20.02
2019-04-06T13:03:22.934Z,21.20
2019-04-06T13:06:09.378Z,28.85
2019-04-06T13:09:07.106Z,27.42
2019-04-06T13:12:04.677Z,33.20
2019-04-06T13:14:56.336Z,23.20
2019-04-06T13:17:45.272Z,21.68
2019-04-06T13:20:49.133Z,21.97
2019-04-06T13:23:28.619Z,23.55
2019-04-06T13:26:38.590Z,30.77
2019-04-06T13:29:36.756Z,21.70
2019-04-06T13:32:43.499Z,18.37
2019-04-06T13:35:50.535Z,23.35
2019-04-06T13:38:34.408Z,18.32
2019-04-06T13:41:29.196Z,35.17
2019-04-06T13:44:20.870Z,23.45
2019-04-06T13:47:05.941Z,28.55
2019-04-06T13:50:06.681Z,26.07
2019-04-06T13:53:04.769Z,17.12
2019-04-06T13:55:59.232Z,22.58
2019-04-06T13:58:53.802Z,23.52
2019-04-06T14:01:48.464Z,26.65
2019-04-06T14:04:52.183Z,19.37
2019-04-06T14:07:41.695Z,31.10
2019-04-06T14:10:27.392Z,35.95
2019-04-06T14:13:18.001Z,27.25
2019-04-06T14:16:09.924Z,19.12
2019-04-06T14:19:00.918Z,22.42
2019-04-06T14:21:55.713Z,29.60
2019-04-06T14:24:53.152Z,21.00
2019-04-06T14:27:52.446Z,23.22
2019-04-06T14:30:47.989Z,30.95
2019-04-06T14:33:48.691Z,28.77
2019-04-06T14:36:37.754Z,25.88
2019-04-06T14:39:27.937Z,20.52
2019-04-06T14:42:35.025Z,25.27
2019-04-06T14:45:38.936Z,24.72
2019-04-06T14:48:42.714Z,26.10
2019-04-06T14:51:27.325Z,18.60
2019-04-06T14:54:10.147Z,29.10
2019-04-06T14:56:48.831Z,22.15
2019-04-06T14:59:48.276Z,18.35
2019-04-06T15:02:36.942Z,27.22
2019-04-06T15:05:20.030Z,20.05
2019-04-06T15:08:05.183Z,32.05
2019-04-06T15:10:55.399Z,25.65
2019-04-06T15:13:55.874Z,25.48
2019-04-06T15:16:54.359Z,27.95
2019-04-06T15:19:54.938Z,24.60
2019-04-06T15:22:46.578Z,25.80
2019-04-06T15:25:31.717Z,21.77
2019-04-06T15:28:35.741Z,26.07
2019-04-06T15:31:49.820Z,25.72
2019-04-06T15:34:35.901Z,19.82
2019-04-06T15:37:31.262Z,23.38
2019-04-06T15:40:40.934Z,19.23
2019-04-06T15:43:25.848Z,22.93
2019-04-06T15:46:12.306Z,23.52
2019-04-06T15:49:05.899Z,26.55
2019-04-06T15:51:46.862Z,21.87
2019-04-06T15:54:44.719Z,31.87
2019-04-06T15:57:51.674Z,24.02
2019-04-06T16:00:46.348Z,31.50
2019-04-06T16:03:38.124Z,22.85
2019-04-06T16:06:28.810Z,23.02
2019-04-06T16:09:23.661Z,23.40
2019-04-06T16:12:14.582Z,38.60
2019-04-06T16:15:12.337Z,28.55
2019-04-06T16:17:52.348Z,28.40
2019-04-06T16:20:38.916Z,23.77
2019-04-06T16:23:33.471Z,20.92
2019-04-06T16:26:23.555Z,24.37
2019-04-06T16:29:18.652Z,21.73
2019-04-06T16:32:32.419Z,28.52
2019-04-06T16:35:17.849Z,24.25
2019-04-06T16:38:13.234Z,30.95
2019-04-06T16:41:00.206Z,34.05
2019-04-06T16:43:52.021Z,26.90
2019-04-06T16:46:42.790Z,28.98
2019-04-06T16:49:49.862Z,51.70
2019-04-06T16:52:41.675Z,36.17
2019-04-06T16:55:35.659Z,25.17
2019-04-06T16:58:26.255Z,32.65
2019-04-06T17:01:08.494Z,37.53
2019-04-06T17:04:12.783Z,26.65
2019-04-06T17:07:19.454Z,36.63
2019-04-06T17:10:26.393Z,36.35
2019-04-06T17:13:30.332Z,30.43
2019-04-06T17:16:22.468Z,31.42
2019-04-06T17:19:17.078Z,33.98
2019-04-06T17:22:20.679Z,39.67
2019-04-06T17:25:02.917Z,50.98
2019-04-06T17:27:57.316Z,48.60
2019-04-06T17:30:54.277Z,52.13
2019-04-06T17:33:42.861Z,52.95
2019-04-06T17:36:48.821Z,79.87
2019-04-06T17:39:29.821Z,83.35
2019-04-06T17:42:29.283Z,56.15
2019-04-06T17:45:33.474Z,38.15
2019-04-06T17:48:20.485Z,35.92
2019-04-06T17:51:25.035Z,58.87
2019-04-06T17:54:27.669Z,55.60
2019-04-06T17:57:22.350Z,40.73
2019-04-06T18:00:16.028Z,44.93
2019-04-06T18:03:11.579Z,45.28
2019-04-06T18:06:04.850Z,57.60
2019-04-06T18:08:59.529Z,67.12
2019-04-06T18:11:42.297Z,71.55
2019-04-06T18:14:17.832Z,64.75
2019-04-06T18:16:49.876Z,76.72
2019-04-06T18:19:22.871Z,93.30
2019-04-06T18:21:56.100Z,74.92
2019-04-06T18:24:29.303Z,132.22
2019-04-06T18:27:02.210Z,136.25
2019-04-06T18:29:35.289Z,96.17
2019-04-06T18:32:32.586Z,61.48
2019-04-06T18:35:06.709Z,51.37
2019-04-06T18:37:55.914Z,54.85
2019-04-06T18:40:29.567Z,69.30
2019-04-06T18:43:02.794Z,78.65
2019-04-06T18:45:35.818Z,98.30
2019-04-06T18:48:09.021Z,76.22
2019-04-06T18:50:42.147Z,67.62
2019-04-06T18:53:15.081Z,93.62
2019-04-06T18:55:48.180Z,92.27
2019-04-06T18:58:21.187Z,173.07
2019-04-06T19:01:08.971Z,136.50
2019-04-06T19:03:44.227Z,108.50
2019-04-06T19:06:17.853Z,76.22
2019-04-06T19:08:51.259Z,82.88
2019-04-06T19:11:24.624Z,90.17
2019-04-06T19:13:57.754Z,97.97
2019-04-06T19:16:31.191Z,105.17
2019-04-06T19:19:04.186Z,94.22
2019-04-06T19:21:37.676Z,113.62
2019-04-06T19:24:11.254Z,116.10
2019-04-06T19:26:44.794Z,107.00
2019-04-06T19:29:18.205Z,101.07
2019-04-06T19:31:52.637Z,75.78
2019-04-06T19:34:26.006Z,66.02
2019-04-06T19:37:00.215Z,64.70
2019-04-06T19:39:33.435Z,58.90
2019-04-06T19:42:06.517Z,57.88
2019-04-06T19:44:39.601Z,40.65
2019-04-06T19:47:12.592Z,45.67
2019-04-06T19:49:45.705Z,44.90
2019-04-06T19:52:18.797Z,45.48
2019-04-06T19:54:52.221Z,43.68
2019-04-06T19:57:25.375Z,40.23
2019-04-06T20:00:00.059Z,43.75
2019-04-06T20:02:33.467Z,34.38
2019-04-06T20:05:08.348Z,43.98
2019-04-06T20:07:43.389Z,48.40
2019-04-06T20:10:24.078Z,43.13
2019-04-06T20:12:59.651Z,47.70
2019-04-06T20:15:35.706Z,41.85
2019-04-06T20:18:09.242Z,41.80
2019-04-06T20:20:42.113Z,42.40
2019-04-06T20:23:15.254Z,44.05
2019-04-06T20:25:48.129Z,56.05
2019-04-06T20:28:21.012Z,58.95
2019-04-06T20:30:54.471Z,57.93
2019-04-06T20:33:28.374Z,45.50
2019-04-06T20:36:01.701Z,47.00
2019-04-06T20:38:34.650Z,45.98
2019-04-06T20:41:07.511Z,52.88
2019-04-06T20:43:40.454Z,53.68
2019-04-06T20:46:13.558Z,42.43
2019-04-06T20:48:46.469Z,49.77
2019-04-06T20:51:19.383Z,46.35
2019-04-06T20:53:52.283Z,46.45
2019-04-06T20:56:25.213Z,54.40
2019-04-06T20:58:58.657Z,37.95
2019-04-06T21:01:32.361Z,45.08
2019-04-06T21:04:05.422Z,57.10
2019-04-06T21:06:38.348Z,48.85
2019-04-06T21:09:15.087Z,47.25
2019-04-06T21:11:48.209Z,39.98
2019-04-06T21:14:21.568Z,46.88
2019-04-06T21:16:54.760Z,50.50
2019-04-06T21:19:28.157Z,37.90
2019-04-06T21:22:01.455Z,31.50
2019-04-06T21:24:35.014Z,56.88
2019-04-06T21:27:08.540Z,49.80
2019-04-06T21:29:41.518Z,47.33
2019-04-06T21:32:15.069Z,34.60
2019-04-06T21:34:48.564Z,49.65
2019-04-06T21:37:21.424Z,39.50
2019-04-06T21:39:54.335Z,38.65
2019-04-06T21:42:27.582Z,44.38
2019-04-06T21:45:00.616Z,53.08
2019-04-06T21:47:34.008Z,55.20
2019-04-06T21:50:08.135Z,53.60
2019-04-06T21:52:41.645Z,46.98
2019-04-06T21:55:16.155Z,40.58
2019-04-06T21:57:49.142Z,46.18
2019-04-06T22:00:38.587Z,47.75
2019-04-06T22:03:13.197Z,56.45
2019-04-06T22:05:46.456Z,60.95
2019-04-06T22:08:19.513Z,43.38
2019-04-06T22:10:52.862Z,45.83
2019-04-06T22:13:27.291Z,58.20
2019-04-06T22:16:00.745Z,53.98
2019-04-06T22:18:33.935Z,55.40
2019-04-06T22:21:07.056Z,46.60
2019-04-06T22:23:43.951Z,51.53
2019-04-06T22:26:14.624Z,57.75
2019-04-06T22:28:48.040Z,57.03
2019-04-06T22:31:21.338Z,60.23
2019-04-06T22:33:54.298Z,64.58
2019-04-06T22:36:27.708Z,59.58
2019-04-06T22:39:00.721Z,49.38
2019-04-06T22:41:35.474Z,43.75
2019-04-06T22:44:08.566Z,51.20
2019-04-06T22:46:41.846Z,65.57
2019-04-06T22:49:14.798Z,59.13
2019-04-06T22:51:48.277Z,62.55
2019-04-06T22:54:22.972Z,53.70
2019-04-06T22:56:55.864Z,48.55
2019-04-06T22:59:28.895Z,50.80
2019-04-06T23:02:01.850Z,57.35
2019-04-06T23:05:00.116Z,48.25
2019-04-06T23:07:33.650Z,51.13
2019-04-06T23:10:06.831Z,55.20
2019-04-06T23:12:40.400Z,53.15
2019-04-06T23:15:13.607Z,50.92
2019-04-06T23:17:46.646Z,57.78
2019-04-06T23:20:19.440Z,70.57
2019-04-06T23:22:52.584Z,61.60
2019-04-06T23:25:25.622Z,67.65
2019-04-06T23:27:58.720Z,62.55
2019-04-06T23:30:31.793Z,69.37
2019-04-06T23:33:04.996Z,66.62
2019-04-06T23:35:37.937Z,58.52
2019-04-06T23:38:11.234Z,60.35
2019-04-06T23:40:44.319Z,58.70
2019-04-06T23:43:17.213Z,63.55
2019-04-06T23:45:50.378Z,63.58
2019-04-06T23:48:23.376Z,57.30
2019-04-06T23:50:56.177Z,58.87
2019-04-06T23:53:29.371Z,64.92
2019-04-06T23:56:02.692Z,55.00
2019-04-06T23:58:35.615Z,65.42
